aviador You're here:

CYBW Decoded Metar

CALGARY/SPRINGBA in AB, CANADA
Report Time2018-01-22 11:00:00
UTC Time2018-01-22 11:57:54
Flight Rules vfr VFR
Wind240° at 10 kt
W.Decomp.*RWY 26: 8.2 kt HW 5.7 kt LCW
RWY 17: 5.7 kt HW 8.2 kt RCW
W.Rank240° ranks 23
Current wind is above 240° avg. (7.4)
Visibility9999 m
Phenomena:N/A
Clouds:N/A
Expected CloudBase > 3,200 ft AGL from Temp-Dew spread
CeilingNone
Temp-3°C (ISA -10)
Dew Point-11°C (54% RH)
AAT-9.7°C
QNH1006 hPa
Density Alt2,986 ft
Elevation3,937 ft
Report Wrong Elevation
Raw Report
CYBW 221100Z AUTO 24010KT 9SM CLR M03/M11 A2971 RMK SLP111=

Extra information for CYBW:More info

Metar Taf Metar & Taf Last 4 Metars F.Rules Stats Wind Profile Meteogram Temp Stats Airport Information Weather charts Add Link Nearby VenuesMetar ALERT Operation Metar Decoded Social comments